createdAt,value
2019-04-27T00:00:07.432Z,5.60
2019-04-27T00:03:01.883Z,5.60
2019-04-27T00:05:43.599Z,5.60
2019-04-27T00:08:24.058Z,5.50
2019-04-27T00:11:08.696Z,5.50
2019-04-27T00:13:40.743Z,5.50
2019-04-27T00:16:25.658Z,5.40
2019-04-27T00:19:16.950Z,5.40
2019-04-27T00:21:53.269Z,5.50
2019-04-27T00:24:23.565Z,5.40
2019-04-27T00:26:54.079Z,5.40
2019-04-27T00:29:23.607Z,5.30
2019-04-27T00:31:55.776Z,5.20
2019-04-27T00:34:24.722Z,5.20
2019-04-27T00:37:11.652Z,5.20
2019-04-27T00:39:58.690Z,5.20
2019-04-27T00:42:28.443Z,5.10
2019-04-27T00:44:58.081Z,5.10
2019-04-27T00:47:27.422Z,5.00
2019-04-27T00:49:56.855Z,5.00
2019-04-27T00:52:25.686Z,5.00
2019-04-27T00:54:54.746Z,5.00
2019-04-27T00:57:43.585Z,5.00
2019-04-27T01:00:31.000Z,4.90
2019-04-27T01:03:08.570Z,4.90
2019-04-27T01:05:37.512Z,4.90
2019-04-27T01:08:06.644Z,4.90
2019-04-27T01:10:36.028Z,4.90
2019-04-27T01:13:06.080Z,5.00
2019-04-27T01:15:35.561Z,4.90
2019-04-27T01:18:11.919Z,4.90
2019-04-27T01:20:35.638Z,4.90
2019-04-27T01:23:04.862Z,5.10
2019-04-27T01:25:52.983Z,5.20
2019-04-27T01:28:29.079Z,5.30
2019-04-27T01:31:03.369Z,5.40
2019-04-27T01:33:32.186Z,5.40
2019-04-27T01:36:01.608Z,5.50
2019-04-27T01:38:30.498Z,5.50
2019-04-27T01:41:00.664Z,5.60
2019-04-27T01:43:30.322Z,5.70
2019-04-27T01:46:01.016Z,5.70
2019-04-27T01:48:30.598Z,5.80
2019-04-27T01:50:59.590Z,5.80
2019-04-27T01:53:30.405Z,5.90
2019-04-27T01:55:59.625Z,6.00
2019-04-27T01:58:29.224Z,6.00
2019-04-27T02:01:12.873Z,6.00
2019-04-27T02:03:59.024Z,6.10
2019-04-27T02:06:29.550Z,6.20
2019-04-27T02:08:59.581Z,6.20
2019-04-27T02:11:28.823Z,6.10
2019-04-27T02:13:59.394Z,6.00
2019-04-27T02:16:30.638Z,5.90
2019-04-27T02:18:59.938Z,5.90
2019-04-27T02:21:29.626Z,5.90
2019-04-27T02:23:59.802Z,5.90
2019-04-27T02:26:29.902Z,5.80
2019-04-27T02:29:13.688Z,5.90
2019-04-27T02:31:57.639Z,5.90
2019-04-27T02:34:30.173Z,6.00
2019-04-27T02:37:02.597Z,5.90
2019-04-27T02:39:30.638Z,5.90
2019-04-27T02:42:00.488Z,5.90
2019-04-27T02:44:40.533Z,5.80
2019-04-27T02:47:10.770Z,5.80
2019-04-27T02:49:40.726Z,5.80
2019-04-27T02:52:22.914Z,5.70
2019-04-27T02:54:52.045Z,5.70
2019-04-27T02:57:21.229Z,5.70
2019-04-27T02:59:50.562Z,5.70
2019-04-27T03:02:34.954Z,5.70
2019-04-27T03:05:04.580Z,5.70
2019-04-27T03:07:34.489Z,5.70
2019-04-27T03:10:03.684Z,5.80
2019-04-27T03:12:39.871Z,5.80
2019-04-27T03:15:31.358Z,5.80
2019-04-27T03:18:40.299Z,5.90
2019-04-27T03:21:13.355Z,5.90
2019-04-27T03:23:43.203Z,5.90
2019-04-27T03:26:34.719Z,6.00
2019-04-27T03:29:04.163Z,6.00
2019-04-27T03:31:33.410Z,6.00
2019-04-27T03:34:05.380Z,6.00
2019-04-27T03:36:33.903Z,6.00
2019-04-27T03:39:02.995Z,6.00
2019-04-27T03:41:32.292Z,6.10
2019-04-27T03:44:01.589Z,6.10
2019-04-27T03:46:30.898Z,6.20
2019-04-27T03:49:00.191Z,6.20
2019-04-27T03:51:52.320Z,6.20
2019-04-27T03:54:29.983Z,6.20
2019-04-27T03:57:21.840Z,6.30
2019-04-27T04:00:02.723Z,6.50
2019-04-27T04:02:32.137Z,6.60
2019-04-27T04:05:01.458Z,6.80
2019-04-27T04:07:31.701Z,7.00
2019-04-27T04:10:00.592Z,7.00
2019-04-27T04:12:40.123Z,7.00
2019-04-27T04:15:12.543Z,7.10
2019-04-27T04:17:41.637Z,7.20
2019-04-27T04:20:11.195Z,7.20
2019-04-27T04:22:40.480Z,7.30
2019-04-27T04:25:10.711Z,7.30
2019-04-27T04:27:42.825Z,7.30
2019-04-27T04:30:12.438Z,7.30
2019-04-27T04:32:42.273Z,7.40
2019-04-27T04:35:22.330Z,7.50
2019-04-27T04:37:52.734Z,7.60
2019-04-27T04:40:26.330Z,7.60
2019-04-27T04:43:10.747Z,7.70
2019-04-27T04:45:53.630Z,7.70
2019-04-27T04:48:23.131Z,7.80
2019-04-27T04:50:52.218Z,7.90
2019-04-27T04:53:21.271Z,8.00
2019-04-27T04:55:50.518Z,8.00
2019-04-27T04:58:21.005Z,8.10
2019-04-27T05:00:51.155Z,8.10
2019-04-27T05:03:21.803Z,8.10
2019-04-27T05:05:51.091Z,8.30
2019-04-27T05:08:20.283Z,8.40
2019-04-27T05:10:49.937Z,8.50
2019-04-27T05:13:19.307Z,8.50
2019-04-27T05:15:49.031Z,8.60
2019-04-27T05:18:19.160Z,8.60
2019-04-27T05:20:55.110Z,8.70
2019-04-27T05:23:24.554Z,8.80
2019-04-27T05:25:54.423Z,8.80
2019-04-27T05:28:23.322Z,8.90
2019-04-27T05:30:52.815Z,9.00
2019-04-27T05:33:21.896Z,9.00
2019-04-27T05:35:50.920Z,9.10
2019-04-27T05:38:20.614Z,9.10
2019-04-27T05:40:50.090Z,9.10
2019-04-27T05:43:21.378Z,9.20
2019-04-27T05:46:52.743Z,9.20
2019-04-27T05:49:44.503Z,9.20
2019-04-27T05:52:29.311Z,9.30
2019-04-27T05:54:59.195Z,9.50
2019-04-27T05:57:31.200Z,9.90
2019-04-27T06:00:02.219Z,10.80
2019-04-27T06:02:31.138Z,11.40
2019-04-27T06:05:00.672Z,12.10
2019-04-27T06:07:29.826Z,12.50
2019-04-27T06:09:59.899Z,12.90
2019-04-27T06:12:29.951Z,12.90
2019-04-27T06:14:59.954Z,13.00
2019-04-27T06:17:30.180Z,13.00
2019-04-27T06:19:59.669Z,12.80
2019-04-27T06:22:29.614Z,13.00
2019-04-27T06:25:00.106Z,13.20
2019-04-27T06:27:30.673Z,13.20
2019-04-27T06:30:00.623Z,12.90
2019-04-27T06:32:29.820Z,12.70
2019-04-27T06:34:59.222Z,12.40
2019-04-27T06:37:29.349Z,12.40
2019-04-27T06:39:59.688Z,12.50
2019-04-27T06:42:29.848Z,12.70
2019-04-27T06:45:00.024Z,12.90
2019-04-27T06:47:29.606Z,12.80
2019-04-27T06:49:59.530Z,12.70
2019-04-27T06:52:29.365Z,12.60
2019-04-27T06:54:58.308Z,12.60
2019-04-27T06:57:29.232Z,12.60
2019-04-27T06:59:59.126Z,12.50
2019-04-27T07:02:29.130Z,12.60
2019-04-27T07:04:59.258Z,12.40
2019-04-27T07:07:29.457Z,12.50
2019-04-27T07:09:59.029Z,12.50
2019-04-27T07:12:28.908Z,12.40
2019-04-27T07:14:59.217Z,12.40
2019-04-27T07:17:28.979Z,12.20
2019-04-27T07:19:59.415Z,12.20
2019-04-27T07:22:29.888Z,12.20
2019-04-27T07:24:59.250Z,12.20
2019-04-27T07:27:29.190Z,12.40
2019-04-27T07:30:00.827Z,12.20
2019-04-27T07:32:29.246Z,12.20
2019-04-27T07:34:58.695Z,12.20
2019-04-27T07:37:29.409Z,12.40
2019-04-27T07:39:59.211Z,12.60
2019-04-27T07:42:31.605Z,12.80
2019-04-27T07:45:11.175Z,12.70
2019-04-27T07:47:43.333Z,12.50
2019-04-27T07:50:12.647Z,12.20
2019-04-27T07:52:41.819Z,12.10
2019-04-27T07:55:11.169Z,12.00
2019-04-27T07:57:40.319Z,12.00
2019-04-27T08:00:09.765Z,12.00
2019-04-27T08:02:39.604Z,12.10
2019-04-27T08:05:09.380Z,12.10
2019-04-27T08:07:39.278Z,12.10
2019-04-27T08:10:09.677Z,12.10
2019-04-27T08:12:39.107Z,11.70
2019-04-27T08:15:08.935Z,11.40
2019-04-27T08:17:38.271Z,11.20
2019-04-27T08:20:09.097Z,10.90
2019-04-27T08:22:38.900Z,10.80
2019-04-27T08:25:09.498Z,10.80
2019-04-27T08:27:44.711Z,10.60
2019-04-27T08:30:35.638Z,10.70
2019-04-27T08:33:06.786Z,10.70
2019-04-27T08:35:35.669Z,10.70
2019-04-27T08:38:04.743Z,10.90
2019-04-27T08:40:34.146Z,11.10
2019-04-27T08:43:02.951Z,11.20
2019-04-27T08:45:32.350Z,11.40
2019-04-27T08:48:02.071Z,11.60
2019-04-27T08:50:31.002Z,11.50
2019-04-27T08:53:00.955Z,11.30
2019-04-27T08:55:30.569Z,11.40
2019-04-27T08:57:59.622Z,11.30
2019-04-27T09:00:29.152Z,11.20
2019-04-27T09:02:59.550Z,11.30
2019-04-27T09:05:29.353Z,11.60
2019-04-27T09:08:29.496Z,11.70
2019-04-27T09:11:18.959Z,11.80
2019-04-27T09:14:19.870Z,11.80
2019-04-27T09:17:10.626Z,11.60
2019-04-27T09:20:00.934Z,11.40
2019-04-27T09:22:29.854Z,11.30
2019-04-27T09:24:59.530Z,11.30
2019-04-27T09:27:28.992Z,11.40
2019-04-27T09:29:59.082Z,11.20
2019-04-27T09:32:28.940Z,11.10
2019-04-27T09:34:58.302Z,11.00
2019-04-27T09:37:27.531Z,11.30
2019-04-27T09:39:56.844Z,11.60
2019-04-27T09:42:26.908Z,11.70
2019-04-27T09:44:56.268Z,11.90
2019-04-27T09:47:26.686Z,12.00
2019-04-27T09:49:56.565Z,11.90
2019-04-27T09:52:28.248Z,11.80
2019-04-27T09:54:56.703Z,11.80
2019-04-27T09:57:26.042Z,11.90
2019-04-27T09:59:56.486Z,11.80
2019-04-27T10:02:26.855Z,11.90
2019-04-27T10:04:56.547Z,12.20
2019-04-27T10:07:26.825Z,12.30
2019-04-27T10:09:56.047Z,12.40
2019-04-27T10:12:26.100Z,12.30
2019-04-27T10:14:56.038Z,12.30
2019-04-27T10:17:25.267Z,12.40
2019-04-27T10:19:54.738Z,12.40
2019-04-27T10:22:37.406Z,12.50
2019-04-27T10:24:54.679Z,12.70
2019-04-27T10:27:25.815Z,12.90
2019-04-27T10:29:56.969Z,12.70
2019-04-27T10:32:26.246Z,12.70
2019-04-27T10:34:55.355Z,12.70
2019-04-27T10:37:25.018Z,12.50
2019-04-27T10:39:53.874Z,12.30
2019-04-27T10:42:22.970Z,12.30
2019-04-27T10:44:51.862Z,12.40
2019-04-27T10:47:20.687Z,12.30
2019-04-27T10:49:49.846Z,12.40
2019-04-27T10:52:18.686Z,12.50
2019-04-27T10:54:48.138Z,12.80
2019-04-27T10:57:17.764Z,13.30
2019-04-27T10:59:46.942Z,13.60
2019-04-27T11:02:15.868Z,13.30
2019-04-27T11:05:02.412Z,13.40
2019-04-27T11:07:41.039Z,13.40
2019-04-27T11:10:10.687Z,13.10
2019-04-27T11:12:39.667Z,12.80
2019-04-27T11:15:09.190Z,12.70
2019-04-27T11:17:38.019Z,12.60
2019-04-27T11:20:08.104Z,12.50
2019-04-27T11:22:37.545Z,12.50
2019-04-27T11:25:07.814Z,12.60
2019-04-27T11:27:37.123Z,12.40
2019-04-27T11:30:07.863Z,12.30
2019-04-27T11:32:37.634Z,12.30
2019-04-27T11:35:20.010Z,12.50
2019-04-27T11:37:49.823Z,12.60
2019-04-27T11:40:19.513Z,12.70
2019-04-27T11:42:48.802Z,12.90
2019-04-27T11:45:17.787Z,12.80
2019-04-27T11:47:47.067Z,12.90
2019-04-27T11:50:16.646Z,12.90
2019-04-27T11:52:45.988Z,12.70
2019-04-27T11:55:16.740Z,12.50
2019-04-27T11:57:47.045Z,12.50
2019-04-27T12:00:19.383Z,12.70
2019-04-27T12:02:49.020Z,12.70
2019-04-27T12:05:18.819Z,12.50
2019-04-27T12:07:48.666Z,12.40
2019-04-27T12:10:17.744Z,12.60
2019-04-27T12:12:46.934Z,12.90
2019-04-27T12:15:17.813Z,13.00
2019-04-27T12:17:46.963Z,13.20
2019-04-27T12:20:17.910Z,12.90
2019-04-27T12:22:47.733Z,12.70
2019-04-27T12:25:17.137Z,12.70
2019-04-27T12:28:08.129Z,12.80
2019-04-27T12:31:11.640Z,13.20
2019-04-27T12:33:40.450Z,13.60
2019-04-27T12:36:09.494Z,13.80
2019-04-27T12:38:38.630Z,14.00
2019-04-27T12:41:07.669Z,14.20
2019-04-27T12:43:37.604Z,14.30
2019-04-27T12:46:07.361Z,14.40
2019-04-27T12:48:37.514Z,14.90
2019-04-27T12:51:06.887Z,15.00
2019-04-27T12:53:50.596Z,15.00
2019-04-27T12:56:21.861Z,14.70
2019-04-27T12:58:56.326Z,14.30
2019-04-27T13:01:25.829Z,14.10
2019-04-27T13:03:58.583Z,14.10
2019-04-27T13:06:26.543Z,14.10
2019-04-27T13:08:55.900Z,13.80
2019-04-27T13:11:26.715Z,13.30
2019-04-27T13:13:57.539Z,13.10
2019-04-27T13:16:28.856Z,13.10
2019-04-27T13:18:57.593Z,13.30
2019-04-27T13:21:26.512Z,13.80
2019-04-27T13:24:03.937Z,14.10
2019-04-27T13:26:26.483Z,14.30
2019-04-27T13:28:55.300Z,14.60
2019-04-27T13:31:25.775Z,14.60
2019-04-27T13:33:55.747Z,14.40
2019-04-27T13:36:26.587Z,14.10
2019-04-27T13:38:56.098Z,14.20
2019-04-27T13:41:31.745Z,14.30
2019-04-27T13:43:57.455Z,14.40
2019-04-27T13:46:46.029Z,14.50
2019-04-27T13:49:39.898Z,14.60
2019-04-27T13:52:12.142Z,14.30
2019-04-27T13:54:41.220Z,14.10
2019-04-27T13:57:11.489Z,14.20
2019-04-27T13:59:41.808Z,14.10
2019-04-27T14:02:11.283Z,14.10
2019-04-27T14:04:40.157Z,13.70
2019-04-27T14:07:09.454Z,13.60
2019-04-27T14:09:39.273Z,13.30
2019-04-27T14:12:21.359Z,13.30
2019-04-27T14:14:49.823Z,13.30
2019-04-27T14:17:19.393Z,13.60
2019-04-27T14:19:48.414Z,13.50
2019-04-27T14:22:18.268Z,13.30
2019-04-27T14:24:48.747Z,13.30
2019-04-27T14:27:18.799Z,13.20
2019-04-27T14:29:48.946Z,13.10
2019-04-27T14:32:18.765Z,12.90
2019-04-27T14:34:50.332Z,12.70
2019-04-27T14:37:19.645Z,12.60
2019-04-27T14:39:49.096Z,12.50
2019-04-27T14:42:19.155Z,12.20
2019-04-27T14:44:49.079Z,11.90
2019-04-27T14:47:18.773Z,11.50
2019-04-27T14:49:49.102Z,10.90
2019-04-27T14:52:18.875Z,10.40
2019-04-27T14:54:50.708Z,9.80
2019-04-27T14:57:20.482Z,8.70
2019-04-27T14:59:50.194Z,8.20
2019-04-27T15:02:19.495Z,8.00
2019-04-27T15:04:48.666Z,7.80
2019-04-27T15:07:18.466Z,7.60
2019-04-27T15:09:49.631Z,7.70
2019-04-27T15:12:18.831Z,7.70
2019-04-27T15:14:48.615Z,7.80
2019-04-27T15:17:23.237Z,8.00
2019-04-27T15:19:54.171Z,8.30
2019-04-27T15:22:29.940Z,8.60
2019-04-27T15:25:09.377Z,8.80
2019-04-27T15:27:42.430Z,8.90
2019-04-27T15:30:17.767Z,9.00
2019-04-27T15:33:10.432Z,9.00
2019-04-27T15:35:44.997Z,8.80
2019-04-27T15:38:18.979Z,8.60
2019-04-27T15:41:13.119Z,8.50
2019-04-27T15:43:43.045Z,8.50
2019-04-27T15:46:12.602Z,8.60
2019-04-27T15:48:41.489Z,8.90
2019-04-27T15:51:17.508Z,9.30
2019-04-27T15:53:45.901Z,9.50
2019-04-27T15:56:12.393Z,9.60
2019-04-27T15:58:41.759Z,9.60
2019-04-27T16:01:11.936Z,9.50
2019-04-27T16:03:41.259Z,9.40
2019-04-27T16:06:12.030Z,9.20
2019-04-27T16:08:45.304Z,9.10
2019-04-27T16:11:16.582Z,8.90
2019-04-27T16:13:43.708Z,8.70
2019-04-27T16:16:12.922Z,8.60
2019-04-27T16:18:41.999Z,8.50
2019-04-27T16:21:11.471Z,8.40
2019-04-27T16:23:43.206Z,7.80
2019-04-27T16:26:15.069Z,7.00
2019-04-27T16:28:43.188Z,6.10
2019-04-27T16:31:13.638Z,5.70
2019-04-27T16:33:42.866Z,5.70
2019-04-27T16:36:11.818Z,5.80
2019-04-27T16:38:55.786Z,5.80
2019-04-27T16:41:25.107Z,5.90
2019-04-27T16:43:54.077Z,5.90
2019-04-27T16:46:23.763Z,6.10
2019-04-27T16:48:52.962Z,6.30
2019-04-27T16:51:22.571Z,6.50
2019-04-27T16:53:54.485Z,6.70
2019-04-27T16:56:24.491Z,6.90
2019-04-27T16:58:56.539Z,7.00
2019-04-27T17:01:30.449Z,7.00
2019-04-27T17:04:00.402Z,7.10
2019-04-27T17:06:29.880Z,7.00
2019-04-27T17:09:05.595Z,6.90
2019-04-27T17:11:30.474Z,6.90
2019-04-27T17:14:29.198Z,6.90
2019-04-27T17:17:03.715Z,7.00
2019-04-27T17:19:41.305Z,7.00
2019-04-27T17:22:10.451Z,7.00
2019-04-27T17:24:45.239Z,7.10
2019-04-27T17:27:11.740Z,7.20
2019-04-27T17:29:41.243Z,7.10
2019-04-27T17:32:19.937Z,7.10
2019-04-27T17:34:49.476Z,7.20
2019-04-27T17:37:18.689Z,7.10
2019-04-27T17:39:48.851Z,7.10
2019-04-27T17:42:18.722Z,7.00
2019-04-27T17:44:49.031Z,6.90
2019-04-27T17:47:20.065Z,6.80
2019-04-27T17:49:48.985Z,6.60
2019-04-27T17:52:18.505Z,6.50
2019-04-27T17:54:48.536Z,6.50
2019-04-27T17:57:18.131Z,6.40
2019-04-27T17:59:51.332Z,6.40
2019-04-27T18:02:18.124Z,6.30
2019-04-27T18:04:48.399Z,6.30
2019-04-27T18:07:19.083Z,6.20
2019-04-27T18:09:48.380Z,6.20
2019-04-27T18:12:18.324Z,6.10
2019-04-27T18:14:48.076Z,6.10
2019-04-27T18:17:19.823Z,6.10
2019-04-27T18:19:52.558Z,6.10
2019-04-27T18:22:21.614Z,6.10
2019-04-27T18:25:06.254Z,6.10
2019-04-27T18:27:52.544Z,6.20
2019-04-27T18:30:38.662Z,6.10
2019-04-27T18:33:05.151Z,6.10
2019-04-27T18:35:34.282Z,6.10
2019-04-27T18:38:03.408Z,6.10
2019-04-27T18:40:33.510Z,6.00
2019-04-27T18:43:06.631Z,6.00
2019-04-27T18:45:39.712Z,5.80
2019-04-27T18:48:13.541Z,5.70
2019-04-27T18:50:54.690Z,5.60
2019-04-27T18:53:26.640Z,5.60
2019-04-27T18:55:59.448Z,5.50
2019-04-27T18:58:26.113Z,5.60
2019-04-27T19:00:55.238Z,5.50
2019-04-27T19:03:24.834Z,5.50
2019-04-27T19:05:54.134Z,5.50
2019-04-27T19:08:23.241Z,5.50
2019-04-27T19:10:52.193Z,5.50
2019-04-27T19:13:21.735Z,5.40
2019-04-27T19:15:52.719Z,5.30
2019-04-27T19:18:22.376Z,5.30
2019-04-27T19:20:51.594Z,5.20
2019-04-27T19:23:21.083Z,5.20
2019-04-27T19:26:08.774Z,5.20
2019-04-27T19:28:52.851Z,5.20
2019-04-27T19:31:26.668Z,5.30
2019-04-27T19:33:56.186Z,5.50
2019-04-27T19:36:25.501Z,5.50
2019-04-27T19:38:54.336Z,5.50
2019-04-27T19:41:23.936Z,5.50
2019-04-27T19:43:52.758Z,5.50
2019-04-27T19:46:21.835Z,5.50
2019-04-27T19:48:50.642Z,5.50
2019-04-27T19:51:19.904Z,5.50
2019-04-27T19:53:49.323Z,5.50
2019-04-27T19:56:19.337Z,5.50
2019-04-27T19:58:52.758Z,5.50
2019-04-27T20:01:29.444Z,5.50
2019-04-27T20:04:08.514Z,5.50
2019-04-27T20:06:38.435Z,5.50
2019-04-27T20:09:39.207Z,5.50
2019-04-27T20:12:10.354Z,5.50
2019-04-27T20:14:57.174Z,5.50
2019-04-27T20:17:27.197Z,5.50
2019-04-27T20:19:56.174Z,5.50
2019-04-27T20:22:25.170Z,5.60
2019-04-27T20:24:54.824Z,5.60
2019-04-27T20:27:23.626Z,5.60
2019-04-27T20:29:52.925Z,5.50
2019-04-27T20:32:21.814Z,5.50
2019-04-27T20:34:51.431Z,5.40
2019-04-27T20:37:21.148Z,5.40
2019-04-27T20:39:51.483Z,5.30
2019-04-27T20:42:21.271Z,5.30
2019-04-27T20:44:51.565Z,5.20
2019-04-27T20:47:21.527Z,5.20
2019-04-27T20:49:50.673Z,5.20
2019-04-27T20:52:30.782Z,5.20
2019-04-27T20:55:01.530Z,5.10
2019-04-27T20:57:31.756Z,5.10
2019-04-27T21:00:02.014Z,4.90
2019-04-27T21:02:55.874Z,4.90
2019-04-27T21:05:35.850Z,4.80
2019-04-27T21:08:07.097Z,4.60
2019-04-27T21:10:36.691Z,4.60
2019-04-27T21:13:05.915Z,4.50
2019-04-27T21:15:34.826Z,4.50
2019-04-27T21:18:03.981Z,4.50
2019-04-27T21:20:33.071Z,4.50
2019-04-27T21:23:02.642Z,4.60
2019-04-27T21:25:33.684Z,4.70
2019-04-27T21:28:15.032Z,4.70
2019-04-27T21:30:33.602Z,4.80
2019-04-27T21:33:02.538Z,4.90
2019-04-27T21:35:31.947Z,4.90
2019-04-27T21:38:03.096Z,4.90
2019-04-27T21:40:31.831Z,4.90
2019-04-27T21:43:01.236Z,4.90
2019-04-27T21:45:31.759Z,4.90
2019-04-27T21:48:01.014Z,4.90
2019-04-27T21:50:31.480Z,4.80
2019-04-27T21:53:06.064Z,4.80
2019-04-27T21:55:35.513Z,4.70
2019-04-27T21:58:04.929Z,4.60
2019-04-27T22:00:56.257Z,4.60
2019-04-27T22:03:28.110Z,4.50
2019-04-27T22:05:57.566Z,4.50
2019-04-27T22:08:26.395Z,4.40
2019-04-27T22:10:55.274Z,4.30
2019-04-27T22:13:24.742Z,4.20
2019-04-27T22:15:54.248Z,4.20
2019-04-27T22:18:23.313Z,4.10
2019-04-27T22:20:52.507Z,4.00
2019-04-27T22:23:31.555Z,3.90
2019-04-27T22:26:01.372Z,3.90
2019-04-27T22:28:45.877Z,3.80
2019-04-27T22:31:01.540Z,3.80
2019-04-27T22:33:30.951Z,3.70
2019-04-27T22:35:59.744Z,3.70
2019-04-27T22:38:30.775Z,3.70
2019-04-27T22:41:21.361Z,3.70
2019-04-27T22:44:12.770Z,3.70
2019-04-27T22:46:43.146Z,3.70
2019-04-27T22:49:12.315Z,3.70
2019-04-27T22:51:43.136Z,3.70
2019-04-27T22:54:11.900Z,3.70
2019-04-27T22:56:42.366Z,3.60
2019-04-27T22:59:31.678Z,3.60
2019-04-27T23:02:32.251Z,3.60
2019-04-27T23:05:02.749Z,3.60
2019-04-27T23:07:31.700Z,3.60
2019-04-27T23:10:01.884Z,3.60
2019-04-27T23:12:31.905Z,3.60
2019-04-27T23:15:01.560Z,3.60
2019-04-27T23:17:49.447Z,3.60
2019-04-27T23:20:20.734Z,3.60
2019-04-27T23:22:51.174Z,3.60
2019-04-27T23:25:20.646Z,3.60
2019-04-27T23:27:51.285Z,3.60
2019-04-27T23:30:21.880Z,3.60
2019-04-27T23:32:52.310Z,3.60
2019-04-27T23:35:21.516Z,3.50
2019-04-27T23:37:50.762Z,3.50
2019-04-27T23:40:21.978Z,3.60
2019-04-27T23:42:51.703Z,3.50
2019-04-27T23:45:22.468Z,3.50
2019-04-27T23:47:51.555Z,3.50
2019-04-27T23:50:21.901Z,3.50
2019-04-27T23:53:19.291Z,3.40
2019-04-27T23:55:48.906Z,3.50
2019-04-27T23:58:18.024Z,3.40
